createdAt,value
2019-01-30T00:00:33.795Z,96.78
2019-01-30T00:01:33.877Z,96.78
2019-01-30T00:02:33.965Z,96.49
2019-01-30T00:03:34.049Z,96.49
2019-01-30T00:04:34.133Z,96.68
2019-01-30T00:05:34.221Z,96.49
2019-01-30T00:06:34.306Z,96.87
2019-01-30T00:07:34.393Z,96.59
2019-01-30T00:08:34.474Z,96.49
2019-01-30T00:09:34.560Z,96.59
2019-01-30T00:10:34.639Z,96.40
2019-01-30T00:11:34.726Z,96.59
2019-01-30T00:12:34.812Z,96.40
2019-01-30T00:13:34.899Z,96.68
2019-01-30T00:14:34.983Z,96.40
2019-01-30T00:15:35.069Z,96.59
2019-01-30T00:16:35.154Z,96.49
2019-01-30T00:17:35.239Z,96.59
2019-01-30T00:18:35.333Z,96.59
2019-01-30T00:19:35.412Z,96.78
2019-01-30T00:20:35.499Z,96.87
2019-01-30T00:21:35.586Z,96.78
2019-01-30T00:22:35.670Z,96.59
2019-01-30T00:23:35.755Z,96.68
2019-01-30T00:24:35.841Z,96.68
2019-01-30T00:25:35.925Z,96.59
2019-01-30T00:26:36.010Z,96.40
2019-01-30T00:27:36.097Z,96.21
2019-01-30T00:28:36.179Z,96.49
2019-01-30T00:29:36.267Z,97.15
2019-01-30T00:30:36.351Z,96.87
2019-01-30T00:31:36.437Z,97.06
2019-01-30T00:32:36.523Z,97.06
2019-01-30T00:33:36.608Z,97.25
2019-01-30T00:34:36.692Z,96.87
2019-01-30T00:35:36.777Z,96.40
2019-01-30T00:36:36.861Z,96.68
2019-01-30T00:37:36.956Z,96.49
2019-01-30T00:38:37.023Z,96.78
2019-01-30T00:39:37.109Z,96.68
2019-01-30T00:40:37.186Z,96.49
2019-01-30T00:41:37.270Z,96.40
2019-01-30T00:42:37.356Z,96.78
2019-01-30T00:43:37.439Z,96.30
2019-01-30T00:44:37.526Z,96.02
2019-01-30T00:45:37.610Z,96.21
2019-01-30T00:46:37.695Z,96.49
2019-01-30T00:47:37.779Z,96.40
2019-01-30T00:48:37.866Z,96.21
2019-01-30T00:49:37.950Z,96.02
2019-01-30T00:50:38.036Z,96.49
2019-01-30T00:51:38.120Z,96.40
2019-01-30T00:52:38.206Z,96.35
2019-01-30T00:53:38.293Z,96.35
2019-01-30T00:54:38.381Z,96.16
2019-01-30T00:55:38.463Z,96.25
2019-01-30T00:56:38.551Z,96.16
2019-01-30T00:57:38.636Z,96.16
2019-01-30T00:58:38.713Z,96.35
2019-01-30T00:59:38.827Z,97.20
2019-01-30T01:00:38.908Z,97.01
2019-01-30T01:01:38.993Z,97.01
2019-01-30T01:02:39.075Z,97.29
2019-01-30T01:03:39.163Z,96.73
2019-01-30T01:04:39.250Z,96.44
2019-01-30T01:05:39.337Z,96.35
2019-01-30T01:06:39.421Z,96.63
2019-01-30T01:07:39.504Z,96.25
2019-01-30T01:08:39.589Z,96.54
2019-01-30T01:09:39.674Z,96.25
2019-01-30T01:10:39.752Z,95.78
2019-01-30T01:11:39.848Z,96.06
2019-01-30T01:12:39.930Z,96.35
2019-01-30T01:13:40.014Z,96.25
2019-01-30T01:14:40.101Z,95.97
2019-01-30T01:15:40.185Z,95.97
2019-01-30T01:16:40.272Z,96.16
2019-01-30T01:17:40.352Z,96.35
2019-01-30T01:18:40.439Z,96.54
2019-01-30T01:19:40.527Z,96.54
2019-01-30T01:20:40.609Z,96.16
2019-01-30T01:21:40.695Z,96.16
2019-01-30T01:22:40.777Z,96.35
2019-01-30T01:23:40.863Z,96.16
2019-01-30T01:24:40.948Z,96.16
2019-01-30T01:25:41.032Z,96.73
2019-01-30T01:26:41.116Z,96.63
2019-01-30T01:27:41.202Z,96.35
2019-01-30T01:28:41.285Z,96.35
2019-01-30T01:29:41.374Z,96.16
2019-01-30T01:30:41.456Z,96.63
2019-01-30T01:31:41.543Z,96.82
2019-01-30T01:32:41.628Z,96.44
2019-01-30T01:33:41.713Z,96.35
2019-01-30T01:34:41.799Z,96.25
2019-01-30T01:35:41.883Z,95.97
2019-01-30T01:36:41.968Z,95.78
2019-01-30T01:37:42.052Z,95.87
2019-01-30T01:38:42.136Z,96.35
2019-01-30T01:39:42.225Z,96.73
2019-01-30T01:40:42.306Z,96.63
2019-01-30T01:41:42.395Z,96.73
2019-01-30T01:42:42.481Z,96.91
2019-01-30T01:43:42.566Z,97.01
2019-01-30T01:44:42.651Z,96.82
2019-01-30T01:45:42.734Z,96.91
2019-01-30T01:46:42.820Z,97.29
2019-01-30T01:47:42.903Z,96.35
2019-01-30T01:48:42.988Z,96.63
2019-01-30T01:49:43.076Z,96.63
2019-01-30T01:50:43.158Z,96.63
2019-01-30T01:51:43.241Z,96.16
2019-01-30T01:52:43.328Z,96.73
2019-01-30T01:53:43.413Z,95.97
2019-01-30T01:54:43.497Z,96.25
2019-01-30T01:55:43.581Z,95.87
2019-01-30T01:56:43.666Z,95.97
2019-01-30T01:57:43.749Z,95.97
2019-01-30T01:58:43.838Z,95.87
2019-01-30T01:59:43.923Z,95.78
2019-01-30T02:00:44.006Z,96.16
2019-01-30T02:01:44.091Z,95.97
2019-01-30T02:02:44.176Z,95.97
2019-01-30T02:03:44.258Z,96.16
2019-01-30T02:04:44.344Z,95.97
2019-01-30T02:05:44.429Z,95.97
2019-01-30T02:06:44.512Z,95.97
2019-01-30T02:07:44.594Z,96.35
2019-01-30T02:08:44.681Z,96.54
2019-01-30T02:09:44.766Z,96.82
2019-01-30T02:10:44.850Z,96.54
2019-01-30T02:11:44.932Z,96.73
2019-01-30T02:12:45.015Z,96.82
2019-01-30T02:13:45.101Z,96.44
2019-01-30T02:14:45.186Z,96.63
2019-01-30T02:15:45.271Z,96.54
2019-01-30T02:16:45.356Z,96.63
2019-01-30T02:17:45.447Z,96.63
2019-01-30T02:18:45.529Z,95.97
2019-01-30T02:19:45.701Z,96.35
2019-01-30T02:20:45.696Z,96.35
2019-01-30T02:21:45.782Z,96.25
2019-01-30T02:22:45.862Z,96.25
2019-01-30T02:23:45.957Z,96.35
2019-01-30T02:24:46.038Z,96.63
2019-01-30T02:25:46.125Z,96.54
2019-01-30T02:26:46.216Z,96.63
2019-01-30T02:27:46.291Z,96.35
2019-01-30T02:28:46.373Z,96.54
2019-01-30T02:29:46.460Z,96.54
2019-01-30T02:30:47.756Z,96.91
2019-01-30T02:31:46.625Z,96.82
2019-01-30T02:32:46.706Z,96.63
2019-01-30T02:33:46.793Z,96.54
2019-01-30T02:34:46.877Z,96.44
2019-01-30T02:35:46.960Z,96.44
2019-01-30T02:36:47.042Z,96.35
2019-01-30T02:37:47.129Z,96.54
2019-01-30T02:38:47.214Z,96.54
2019-01-30T02:39:47.297Z,96.44
2019-01-30T02:40:47.377Z,96.54
2019-01-30T02:41:47.460Z,96.54
2019-01-30T02:42:47.546Z,96.54
2019-01-30T02:43:47.630Z,96.82
2019-01-30T02:44:47.713Z,96.16
2019-01-30T02:45:47.804Z,96.25
2019-01-30T02:46:47.886Z,95.97
2019-01-30T02:47:47.974Z,95.87
2019-01-30T02:48:48.057Z,96.44
2019-01-30T02:49:48.142Z,96.16
2019-01-30T02:50:48.227Z,96.35
2019-01-30T02:51:48.309Z,96.44
2019-01-30T02:52:48.396Z,96.06
2019-01-30T02:53:48.477Z,96.25
2019-01-30T02:54:48.565Z,96.25
2019-01-30T02:55:48.648Z,96.44
2019-01-30T02:56:48.732Z,96.06
2019-01-30T02:57:48.816Z,95.78
2019-01-30T02:58:48.899Z,96.16
2019-01-30T02:59:48.981Z,96.06
2019-01-30T03:00:58.764Z,95.59
2019-01-30T03:01:49.156Z,95.59
2019-01-30T03:02:49.234Z,95.59
2019-01-30T03:03:49.318Z,95.50
2019-01-30T03:04:49.410Z,95.68
2019-01-30T03:05:49.488Z,95.59
2019-01-30T03:06:49.574Z,95.59
2019-01-30T03:07:49.681Z,95.59
2019-01-30T03:08:49.747Z,95.59
2019-01-30T03:09:49.827Z,95.31
2019-01-30T03:10:49.911Z,95.50
2019-01-30T03:11:49.996Z,95.78
2019-01-30T03:12:50.083Z,95.59
2019-01-30T03:13:50.170Z,95.87
2019-01-30T03:14:50.258Z,95.78
2019-01-30T03:15:50.343Z,95.87
2019-01-30T03:16:50.424Z,95.78
2019-01-30T03:17:50.507Z,95.21
2019-01-30T03:18:50.590Z,95.31
2019-01-30T03:19:50.680Z,95.59
2019-01-30T03:20:50.762Z,95.59
2019-01-30T03:21:50.851Z,96.35
2019-01-30T03:22:50.935Z,96.54
2019-01-30T03:23:51.020Z,97.10
2019-01-30T03:24:51.103Z,96.54
2019-01-30T03:25:51.189Z,96.91
2019-01-30T03:26:51.274Z,97.10
2019-01-30T03:27:51.357Z,96.35
2019-01-30T03:28:51.442Z,96.54
2019-01-30T03:29:51.524Z,96.06
2019-01-30T03:30:51.618Z,96.06
2019-01-30T03:31:51.700Z,96.16
2019-01-30T03:32:51.784Z,95.59
2019-01-30T03:33:51.865Z,95.59
2019-01-30T03:34:51.949Z,95.59
2019-01-30T03:35:52.036Z,95.59
2019-01-30T03:36:52.119Z,96.06
2019-01-30T03:37:52.203Z,96.06
2019-01-30T03:38:52.289Z,96.16
2019-01-30T03:39:52.373Z,96.16
2019-01-30T03:40:52.460Z,96.54
2019-01-30T03:41:52.545Z,96.25
2019-01-30T03:42:52.628Z,96.54
2019-01-30T03:43:52.715Z,96.16
2019-01-30T03:44:52.799Z,96.44
2019-01-30T03:45:52.885Z,96.54
2019-01-30T03:46:52.970Z,96.44
2019-01-30T03:47:53.053Z,96.54
2019-01-30T03:48:53.145Z,96.54
2019-01-30T03:49:53.227Z,96.63
2019-01-30T03:50:53.310Z,96.73
2019-01-30T03:51:53.395Z,96.44
2019-01-30T03:52:53.478Z,96.25
2019-01-30T03:53:53.568Z,96.16
2019-01-30T03:54:53.650Z,96.35
2019-01-30T03:55:53.737Z,96.54
2019-01-30T03:56:53.819Z,96.54
2019-01-30T03:57:53.903Z,96.16
2019-01-30T03:58:53.991Z,96.82
2019-01-30T03:59:54.074Z,96.63
2019-01-30T04:00:54.160Z,96.35
2019-01-30T04:01:54.246Z,96.35
2019-01-30T04:02:54.335Z,96.06
2019-01-30T04:03:54.418Z,96.16
2019-01-30T04:04:54.505Z,95.97
2019-01-30T04:05:54.588Z,95.78
2019-01-30T04:06:54.673Z,95.68
2019-01-30T04:07:54.755Z,96.06
2019-01-30T04:08:54.840Z,96.35
2019-01-30T04:09:54.926Z,95.97
2019-01-30T04:10:55.012Z,95.97
2019-01-30T04:11:55.096Z,96.25
2019-01-30T04:12:55.180Z,96.25
2019-01-30T04:13:55.265Z,95.50
2019-01-30T04:14:55.351Z,95.59
2019-01-30T04:15:55.438Z,95.59
2019-01-30T04:16:55.523Z,95.59
2019-01-30T04:17:55.608Z,96.16
2019-01-30T04:18:55.693Z,95.59
2019-01-30T04:19:55.784Z,95.31
2019-01-30T04:20:55.865Z,95.50
2019-01-30T04:21:55.948Z,95.50
2019-01-30T04:22:56.038Z,95.59
2019-01-30T04:23:56.123Z,95.68
2019-01-30T04:24:56.207Z,95.59
2019-01-30T04:25:56.292Z,95.31
2019-01-30T04:26:56.380Z,94.93
2019-01-30T04:27:56.464Z,95.21
2019-01-30T04:28:56.545Z,95.50
2019-01-30T04:29:56.627Z,95.97
2019-01-30T04:30:56.802Z,96.06
2019-01-30T04:31:56.799Z,96.16
2019-01-30T04:32:56.888Z,95.87
2019-01-30T04:33:56.973Z,95.87
2019-01-30T04:34:57.057Z,96.16
2019-01-30T04:35:57.143Z,96.06
2019-01-30T04:36:57.227Z,95.78
2019-01-30T04:37:57.312Z,95.59
2019-01-30T04:38:57.400Z,95.50
2019-01-30T04:39:57.484Z,95.50
2019-01-30T04:40:57.571Z,95.78
2019-01-30T04:41:57.651Z,95.78
2019-01-30T04:42:57.737Z,95.50
2019-01-30T04:43:57.830Z,95.68
2019-01-30T04:44:57.909Z,95.78
2019-01-30T04:45:57.995Z,95.59
2019-01-30T04:46:58.078Z,95.68
2019-01-30T04:47:58.170Z,95.59
2019-01-30T04:48:58.250Z,95.59
2019-01-30T04:49:58.336Z,95.40
2019-01-30T04:50:58.424Z,95.59
2019-01-30T04:51:58.509Z,95.78
2019-01-30T04:52:58.591Z,95.68
2019-01-30T04:53:58.778Z,95.68
2019-01-30T04:54:58.763Z,95.78
2019-01-30T04:55:58.848Z,95.59
2019-01-30T04:56:58.937Z,95.59
2019-01-30T04:57:59.030Z,95.59
2019-01-30T04:58:59.113Z,95.31
2019-01-30T04:59:59.196Z,95.59
2019-01-30T05:00:59.279Z,95.40
2019-01-30T05:01:59.362Z,95.21
2019-01-30T05:02:59.447Z,95.31
2019-01-30T05:03:59.532Z,95.68
2019-01-30T05:04:59.617Z,95.68
2019-01-30T05:05:59.955Z,95.21
2019-01-30T05:06:59.813Z,95.68
2019-01-30T05:07:59.893Z,95.68
2019-01-30T05:08:59.978Z,95.59
2019-01-30T05:10:00.291Z,95.50
2019-01-30T05:11:00.149Z,95.31
2019-01-30T05:12:00.234Z,95.12
2019-01-30T05:13:00.320Z,95.03
2019-01-30T05:14:01.516Z,95.03
2019-01-30T05:15:00.520Z,95.12
2019-01-30T05:16:00.569Z,94.93
2019-01-30T05:17:00.646Z,94.93
2019-01-30T05:18:00.740Z,94.93
2019-01-30T05:19:00.829Z,95.12
2019-01-30T05:20:00.921Z,95.17
2019-01-30T05:21:01.027Z,95.36
2019-01-30T05:22:01.077Z,94.98
2019-01-30T05:23:01.161Z,95.26
2019-01-30T05:24:01.243Z,95.17
2019-01-30T05:25:01.334Z,95.07
2019-01-30T05:26:01.419Z,94.60
2019-01-30T05:27:01.504Z,94.79
2019-01-30T05:28:01.588Z,94.22
2019-01-30T05:29:01.681Z,93.75
2019-01-30T05:30:01.767Z,93.66
2019-01-30T05:31:01.850Z,94.03
2019-01-30T05:32:01.934Z,93.51
2019-01-30T05:33:02.024Z,92.90
2019-01-30T05:34:02.107Z,92.80
2019-01-30T05:35:02.202Z,93.23
2019-01-30T05:36:02.277Z,92.57
2019-01-30T05:37:02.361Z,92.57
2019-01-30T05:38:02.450Z,91.81
2019-01-30T05:39:02.538Z,92.10
2019-01-30T05:40:02.622Z,91.91
2019-01-30T05:41:02.713Z,91.34
2019-01-30T05:42:02.795Z,91.05
2019-01-30T05:43:02.879Z,91.15
2019-01-30T05:44:02.965Z,90.77
2019-01-30T05:45:03.046Z,90.30
2019-01-30T05:46:03.134Z,90.39
2019-01-30T05:47:03.223Z,90.30
2019-01-30T05:48:03.307Z,90.11
2019-01-30T05:49:03.391Z,89.83
2019-01-30T05:50:03.480Z,89.36
2019-01-30T05:51:03.564Z,89.45
2019-01-30T05:52:03.648Z,89.26
2019-01-30T05:53:03.736Z,89.36
2019-01-30T05:54:03.824Z,89.45
2019-01-30T05:55:03.914Z,89.17
2019-01-30T05:56:03.999Z,89.36
2019-01-30T05:57:04.092Z,89.36
2019-01-30T05:58:04.170Z,89.07
2019-01-30T05:59:04.253Z,88.79
2019-01-30T06:00:04.343Z,88.41
2019-01-30T06:01:04.430Z,88.98
2019-01-30T06:02:11.877Z,88.60
2019-01-30T06:03:04.610Z,88.60
2019-01-30T06:04:04.690Z,88.79
2019-01-30T06:05:04.794Z,88.98
2019-01-30T06:06:04.887Z,88.41
2019-01-30T06:07:04.973Z,88.50
2019-01-30T06:08:05.061Z,88.41
2019-01-30T06:09:05.146Z,88.31
2019-01-30T06:10:05.236Z,88.22
2019-01-30T06:11:05.313Z,88.03
2019-01-30T06:12:05.401Z,88.22
2019-01-30T06:13:05.492Z,88.12
2019-01-30T06:14:05.594Z,88.12
2019-01-30T06:15:05.677Z,87.65
2019-01-30T06:16:05.763Z,87.74
2019-01-30T06:17:05.851Z,87.46
2019-01-30T06:18:05.936Z,86.90
2019-01-30T06:19:06.024Z,87.18
2019-01-30T06:20:06.118Z,86.99
2019-01-30T06:21:06.197Z,87.37
2019-01-30T06:22:06.286Z,87.55
2019-01-30T06:23:06.372Z,87.74
2019-01-30T06:24:06.453Z,87.55
2019-01-30T06:25:06.539Z,87.27
2019-01-30T06:26:06.625Z,86.90
2019-01-30T06:27:06.710Z,87.18
2019-01-30T06:28:06.792Z,86.99
2019-01-30T06:29:06.889Z,86.56
2019-01-30T06:30:07.142Z,85.61
2019-01-30T06:31:07.155Z,85.24
2019-01-30T06:32:07.112Z,85.33
2019-01-30T06:33:07.199Z,85.05
2019-01-30T06:34:07.290Z,85.14
2019-01-30T06:35:07.376Z,85.33
2019-01-30T06:36:07.463Z,85.33
2019-01-30T06:37:07.546Z,85.33
2019-01-30T06:38:07.633Z,85.33
2019-01-30T06:39:07.738Z,84.48
2019-01-30T06:40:07.806Z,84.48
2019-01-30T06:41:07.893Z,84.48
2019-01-30T06:42:07.976Z,84.01
2019-01-30T06:43:08.059Z,84.20
2019-01-30T06:44:08.145Z,84.20
2019-01-30T06:45:08.333Z,84.67
2019-01-30T06:46:08.313Z,84.39
2019-01-30T06:47:08.401Z,84.58
2019-01-30T06:48:08.482Z,84.48
2019-01-30T06:49:08.577Z,84.39
2019-01-30T06:50:08.665Z,84.29
2019-01-30T06:51:08.751Z,84.20
2019-01-30T06:52:08.855Z,84.95
2019-01-30T06:53:08.942Z,84.39
2019-01-30T06:54:09.020Z,84.20
2019-01-30T06:55:09.106Z,84.01
2019-01-30T06:56:09.183Z,83.63
2019-01-30T06:57:09.279Z,83.53
2019-01-30T06:58:09.366Z,83.63
2019-01-30T06:59:09.461Z,83.25
2019-01-30T07:00:09.534Z,83.53
2019-01-30T07:01:09.607Z,83.53
2019-01-30T07:02:09.696Z,83.34
2019-01-30T07:03:09.779Z,83.34
2019-01-30T07:04:09.867Z,83.34
2019-01-30T07:05:09.950Z,83.53
2019-01-30T07:06:10.038Z,83.63
2019-01-30T07:07:10.126Z,83.63
2019-01-30T07:08:10.214Z,84.01
2019-01-30T07:09:10.299Z,83.72
2019-01-30T07:10:10.386Z,84.48
2019-01-30T07:11:11.090Z,83.72
2019-01-30T07:12:10.559Z,82.87
2019-01-30T07:13:10.644Z,83.15
2019-01-30T07:14:10.730Z,82.68
2019-01-30T07:15:10.817Z,82.50
2019-01-30T07:16:10.906Z,82.59
2019-01-30T07:17:10.994Z,82.40
2019-01-30T07:18:11.078Z,82.50
2019-01-30T07:19:11.165Z,82.59
2019-01-30T07:20:11.253Z,82.50
2019-01-30T07:21:11.339Z,82.40
2019-01-30T07:22:11.427Z,82.40
2019-01-30T07:23:11.513Z,82.31
2019-01-30T07:24:11.598Z,82.40
2019-01-30T07:25:11.681Z,82.12
2019-01-30T07:26:11.764Z,82.12
2019-01-30T07:27:11.855Z,82.12
2019-01-30T07:28:11.941Z,82.31
2019-01-30T07:29:12.038Z,82.59
2019-01-30T07:30:12.138Z,82.40
2019-01-30T07:31:12.225Z,81.74
2019-01-30T07:32:12.311Z,82.50
2019-01-30T07:33:12.398Z,82.21
2019-01-30T07:34:12.489Z,82.50
2019-01-30T07:35:12.569Z,82.40
2019-01-30T07:36:12.654Z,82.21
2019-01-30T07:37:12.740Z,81.45
2019-01-30T07:38:12.827Z,81.26
2019-01-30T07:39:12.914Z,81.17
2019-01-30T07:40:13.000Z,81.36
2019-01-30T07:41:13.086Z,81.45
2019-01-30T07:42:13.174Z,81.17
2019-01-30T07:43:13.260Z,80.88
2019-01-30T07:44:13.349Z,81.26
2019-01-30T07:45:13.431Z,81.07
2019-01-30T07:46:13.522Z,80.79
2019-01-30T07:47:13.611Z,80.60
2019-01-30T07:48:13.696Z,80.98
2019-01-30T07:49:13.783Z,80.41
2019-01-30T07:50:13.870Z,80.51
2019-01-30T07:51:15.805Z,80.41
2019-01-30T07:52:14.038Z,80.22
2019-01-30T07:53:14.125Z,80.22
2019-01-30T07:54:14.211Z,80.36
2019-01-30T07:55:14.297Z,80.32
2019-01-30T07:56:14.385Z,80.51
2019-01-30T07:57:14.496Z,79.75
2019-01-30T07:58:14.555Z,80.13
2019-01-30T07:59:14.643Z,80.04
2019-01-30T08:00:14.754Z,80.26
2019-01-30T08:01:14.811Z,80.36
2019-01-30T08:02:14.903Z,80.55
2019-01-30T08:03:14.989Z,80.74
2019-01-30T08:04:15.074Z,80.26
2019-01-30T08:05:15.158Z,80.93
2019-01-30T08:06:15.247Z,79.88
2019-01-30T08:07:15.348Z,80.07
2019-01-30T08:08:15.413Z,79.79
2019-01-30T08:09:15.490Z,79.50
2019-01-30T08:10:15.580Z,79.60
2019-01-30T08:11:15.663Z,79.41
2019-01-30T08:12:15.751Z,79.41
2019-01-30T08:13:15.831Z,79.22
2019-01-30T08:14:15.915Z,79.41
2019-01-30T08:15:16.004Z,79.32
2019-01-30T08:16:16.087Z,79.50
2019-01-30T08:17:16.173Z,79.41
2019-01-30T08:18:16.262Z,78.94
2019-01-30T08:19:16.340Z,78.75
2019-01-30T08:20:16.426Z,78.56
2019-01-30T08:21:16.511Z,78.37
2019-01-30T08:22:16.595Z,78.56
2019-01-30T08:23:17.002Z,78.27
2019-01-30T08:24:16.767Z,78.94
2019-01-30T08:25:16.894Z,79.03
2019-01-30T08:26:16.982Z,79.22
2019-01-30T08:27:17.321Z,79.41
2019-01-30T08:28:17.209Z,79.41
2019-01-30T08:29:17.361Z,79.13
2019-01-30T08:30:22.631Z,79.32
2019-01-30T08:31:17.629Z,79.32
2019-01-30T08:32:17.492Z,79.41
2019-01-30T08:33:17.570Z,78.85
2019-01-30T08:34:17.623Z,78.85
2019-01-30T08:35:17.717Z,79.03
2019-01-30T08:36:17.801Z,79.03
2019-01-30T08:37:17.878Z,78.94
2019-01-30T08:38:17.971Z,79.03
2019-01-30T08:39:18.059Z,78.85
2019-01-30T08:40:18.143Z,78.37
2019-01-30T08:41:18.232Z,78.37
2019-01-30T08:42:18.318Z,77.80
2019-01-30T08:43:18.399Z,77.89
2019-01-30T08:44:18.483Z,77.61
2019-01-30T08:45:18.572Z,77.80
2019-01-30T08:46:18.659Z,77.75
2019-01-30T08:47:18.744Z,77.56
2019-01-30T08:48:18.833Z,77.46
2019-01-30T08:49:18.911Z,77.75
2019-01-30T08:50:19.003Z,77.37
2019-01-30T08:51:19.091Z,77.46
2019-01-30T08:52:19.180Z,77.56
2019-01-30T08:53:19.286Z,76.70
2019-01-30T08:54:19.373Z,76.23
2019-01-30T08:55:19.478Z,76.42
2019-01-30T08:56:19.605Z,76.14
2019-01-30T08:57:19.653Z,76.42
2019-01-30T08:58:19.740Z,76.51
2019-01-30T08:59:19.828Z,76.42
2019-01-30T09:00:19.914Z,76.80
2019-01-30T09:01:19.999Z,76.80
2019-01-30T09:02:21.117Z,77.08
2019-01-30T09:03:20.178Z,76.23
2019-01-30T09:04:20.267Z,75.95
2019-01-30T09:05:20.365Z,76.51
2019-01-30T09:06:20.425Z,76.32
2019-01-30T09:07:20.534Z,76.99
2019-01-30T09:08:20.594Z,76.80
2019-01-30T09:09:20.680Z,77.18
2019-01-30T09:10:20.794Z,76.14
2019-01-30T09:11:20.834Z,76.51
2019-01-30T09:12:20.912Z,75.95
2019-01-30T09:13:21.022Z,75.76
2019-01-30T09:14:21.095Z,76.23
2019-01-30T09:15:21.182Z,76.42
2019-01-30T09:16:21.269Z,76.23
2019-01-30T09:17:21.353Z,76.32
2019-01-30T09:18:21.448Z,75.28
2019-01-30T09:19:21.532Z,75.57
2019-01-30T09:20:21.627Z,75.09
2019-01-30T09:21:21.706Z,75.66
2019-01-30T09:22:21.791Z,75.47
2019-01-30T09:23:21.899Z,75.57
2019-01-30T09:24:21.966Z,75.95
2019-01-30T09:25:22.056Z,76.42
2019-01-30T09:26:22.142Z,76.32
2019-01-30T09:27:24.235Z,76.61
2019-01-30T09:28:22.338Z,76.42
2019-01-30T09:29:22.399Z,76.51
2019-01-30T09:30:22.486Z,76.61
2019-01-30T09:31:22.575Z,76.42
2019-01-30T09:32:22.651Z,76.70
2019-01-30T09:33:25.942Z,76.61
2019-01-30T09:34:22.827Z,76.61
2019-01-30T09:35:22.935Z,76.23
2019-01-30T09:36:23.005Z,75.76
2019-01-30T09:37:23.102Z,75.76
2019-01-30T09:38:23.177Z,75.66
2019-01-30T09:39:23.261Z,75.57
2019-01-30T09:40:23.356Z,75.66
2019-01-30T09:41:23.459Z,75.95
2019-01-30T09:42:23.568Z,76.42
2019-01-30T09:43:23.678Z,76.51
2019-01-30T09:44:23.693Z,77.18
2019-01-30T09:45:23.780Z,77.65
2019-01-30T09:46:23.903Z,78.03
2019-01-30T09:47:23.958Z,78.79
2019-01-30T09:48:24.044Z,78.59
2019-01-30T09:49:24.136Z,79.07
2019-01-30T09:50:24.223Z,79.36
2019-01-30T09:51:24.309Z,79.07
2019-01-30T09:52:26.872Z,79.55
2019-01-30T09:53:24.519Z,79.93
2019-01-30T09:54:24.571Z,80.21
2019-01-30T09:55:24.659Z,80.30
2019-01-30T09:56:24.742Z,80.02
2019-01-30T09:57:24.824Z,80.58
2019-01-30T09:58:24.918Z,80.21
2019-01-30T09:59:25.000Z,80.68
2019-01-30T10:00:25.084Z,80.11
2019-01-30T10:01:25.175Z,80.21
2019-01-30T10:02:25.542Z,80.02
2019-01-30T10:03:35.730Z,80.11
2019-01-30T10:04:25.461Z,79.36
2019-01-30T10:05:25.523Z,79.74
2019-01-30T10:06:25.610Z,80.02
2019-01-30T10:07:25.694Z,79.64
2019-01-30T10:08:25.779Z,79.45
2019-01-30T10:09:25.869Z,79.07
2019-01-30T10:10:25.957Z,78.22
2019-01-30T10:11:26.045Z,78.31
2019-01-30T10:12:26.134Z,77.65
2019-01-30T10:13:26.216Z,77.37
2019-01-30T10:14:26.312Z,78.03
2019-01-30T10:15:26.400Z,77.84
2019-01-30T10:16:26.488Z,77.75
2019-01-30T10:17:26.580Z,77.56
2019-01-30T10:18:26.660Z,77.75
2019-01-30T10:19:26.750Z,77.08
2019-01-30T10:20:26.839Z,76.04
2019-01-30T10:21:26.926Z,76.51
2019-01-30T10:22:27.017Z,76.23
2019-01-30T10:23:27.102Z,76.80
2019-01-30T10:24:28.993Z,76.27
2019-01-30T10:25:27.273Z,76.46
2019-01-30T10:26:27.361Z,76.46
2019-01-30T10:27:27.451Z,76.27
2019-01-30T10:28:27.534Z,76.36
2019-01-30T10:29:27.624Z,76.65
2019-01-30T10:30:27.714Z,75.42
2019-01-30T10:31:27.799Z,75.13
2019-01-30T10:32:27.972Z,75.98
2019-01-30T10:33:27.976Z,75.89
2019-01-30T10:34:28.059Z,75.79
2019-01-30T10:35:28.148Z,75.32
2019-01-30T10:36:28.235Z,75.32
2019-01-30T10:37:28.345Z,75.32
2019-01-30T10:38:28.410Z,75.17
2019-01-30T10:39:28.495Z,75.55
2019-01-30T10:40:28.583Z,74.79
2019-01-30T10:41:28.668Z,74.41
2019-01-30T10:42:28.761Z,74.32
2019-01-30T10:43:28.850Z,74.51
2019-01-30T10:44:28.936Z,74.13
2019-01-30T10:45:29.024Z,73.37
2019-01-30T10:46:29.109Z,73.27
2019-01-30T10:47:29.200Z,72.04
2019-01-30T10:48:29.283Z,72.23
2019-01-30T10:49:29.374Z,71.85
2019-01-30T10:50:29.461Z,71.66
2019-01-30T10:51:29.549Z,71.85
2019-01-30T10:52:29.635Z,72.23
2019-01-30T10:53:29.730Z,72.42
2019-01-30T10:54:29.819Z,72.04
2019-01-30T10:55:29.897Z,72.14
2019-01-30T10:56:29.993Z,72.80
2019-01-30T10:57:30.208Z,72.61
2019-01-30T10:58:30.183Z,72.42
2019-01-30T10:59:30.269Z,72.71
2019-01-30T11:00:30.359Z,72.89
2019-01-30T11:01:30.446Z,73.46
2019-01-30T11:02:30.532Z,72.04
2019-01-30T11:03:30.623Z,72.14
2019-01-30T11:04:30.713Z,72.04
2019-01-30T11:05:30.799Z,72.23
2019-01-30T11:06:30.886Z,72.55
2019-01-30T11:07:30.976Z,72.84
2019-01-30T11:08:31.062Z,72.84
2019-01-30T11:09:31.175Z,71.66
2019-01-30T11:10:31.231Z,71.95
2019-01-30T11:11:31.317Z,72.04
2019-01-30T11:12:31.402Z,72.14
2019-01-30T11:13:31.490Z,71.95
2019-01-30T11:14:31.578Z,71.95
2019-01-30T11:15:31.665Z,72.17
2019-01-30T11:16:31.792Z,72.27
2019-01-30T11:17:31.844Z,72.17
2019-01-30T11:18:31.938Z,72.08
2019-01-30T11:19:32.022Z,71.51
2019-01-30T11:20:32.110Z,71.41
2019-01-30T11:21:32.202Z,71.41
2019-01-30T11:22:32.275Z,70.84
2019-01-30T11:23:32.383Z,70.65
2019-01-30T11:24:32.473Z,71.41
2019-01-30T11:25:32.561Z,71.51
2019-01-30T11:26:32.636Z,71.41
2019-01-30T11:27:32.726Z,71.13
2019-01-30T11:28:32.816Z,71.98
2019-01-30T11:29:33.019Z,71.98
2019-01-30T11:30:35.026Z,72.45
2019-01-30T11:31:33.086Z,72.27
2019-01-30T11:32:33.174Z,72.36
2019-01-30T11:33:33.264Z,72.36
2019-01-30T11:34:33.359Z,72.17
2019-01-30T11:35:33.449Z,71.60
2019-01-30T11:36:33.542Z,72.08
2019-01-30T11:37:33.624Z,72.64
2019-01-30T11:38:33.713Z,73.50
2019-01-30T11:39:33.804Z,72.45
2019-01-30T11:40:33.893Z,72.55
2019-01-30T11:41:33.980Z,73.79
2019-01-30T11:42:34.080Z,73.31
2019-01-30T11:43:34.159Z,74.07
2019-01-30T11:44:34.250Z,74.32
2019-01-30T11:45:34.337Z,73.75
2019-01-30T11:46:34.428Z,73.94
2019-01-30T11:47:34.525Z,74.41
2019-01-30T11:48:34.601Z,74.79
2019-01-30T11:49:34.690Z,75.36
2019-01-30T11:50:34.781Z,75.17
2019-01-30T11:51:34.863Z,74.98
2019-01-30T11:52:34.964Z,75.17
2019-01-30T11:53:35.048Z,75.64
2019-01-30T11:54:38.927Z,75.45
2019-01-30T11:55:35.220Z,75.07
2019-01-30T11:56:35.313Z,75.55
2019-01-30T11:57:35.404Z,75.55
2019-01-30T11:58:35.485Z,76.03
2019-01-30T11:59:35.632Z,75.84
2019-01-30T12:00:35.692Z,76.50
2019-01-30T12:01:35.781Z,76.59
2019-01-30T12:02:35.880Z,76.12
2019-01-30T12:03:35.966Z,76.12
2019-01-30T12:04:36.064Z,76.03
2019-01-30T12:05:36.148Z,75.93
2019-01-30T12:06:36.235Z,75.64
2019-01-30T12:07:36.320Z,76.03
2019-01-30T12:08:36.405Z,75.84
2019-01-30T12:09:36.505Z,75.55
2019-01-30T12:10:36.585Z,75.31
2019-01-30T12:11:36.673Z,75.59
2019-01-30T12:12:36.754Z,76.06
2019-01-30T12:13:36.852Z,75.87
2019-01-30T12:14:36.945Z,75.68
2019-01-30T12:15:38.668Z,75.68
2019-01-30T12:16:37.119Z,75.87
2019-01-30T12:17:37.210Z,75.40
2019-01-30T12:18:37.297Z,75.11
2019-01-30T12:19:37.390Z,75.02
2019-01-30T12:20:37.473Z,75.87
2019-01-30T12:21:37.561Z,75.40
2019-01-30T12:22:37.649Z,75.87
2019-01-30T12:23:37.738Z,75.40
2019-01-30T12:24:37.835Z,75.31
2019-01-30T12:25:37.929Z,75.40
2019-01-30T12:26:38.016Z,75.49
2019-01-30T12:27:38.102Z,76.15
2019-01-30T12:28:38.191Z,76.44
2019-01-30T12:29:38.295Z,75.96
2019-01-30T12:30:38.360Z,75.87
2019-01-30T12:31:38.456Z,76.15
2019-01-30T12:32:38.542Z,75.68
2019-01-30T12:33:38.630Z,75.59
2019-01-30T12:34:38.718Z,75.96
2019-01-30T12:35:38.807Z,76.06
2019-01-30T12:36:38.897Z,76.73
2019-01-30T12:37:38.981Z,76.54
2019-01-30T12:38:39.068Z,76.34
2019-01-30T12:39:39.159Z,76.34
2019-01-30T12:40:39.244Z,76.34
2019-01-30T12:41:39.335Z,76.34
2019-01-30T12:42:39.427Z,76.73
2019-01-30T12:43:39.609Z,76.15
2019-01-30T12:44:39.606Z,76.73
2019-01-30T12:45:39.700Z,76.63
2019-01-30T12:46:39.782Z,76.82
2019-01-30T12:47:39.871Z,76.25
2019-01-30T12:48:39.962Z,75.87
2019-01-30T12:49:40.049Z,76.06
2019-01-30T12:50:40.138Z,76.15
2019-01-30T12:51:40.225Z,76.15
2019-01-30T12:52:40.316Z,75.40
2019-01-30T12:53:40.402Z,75.78